NWK361 YBAS-YBCS
Flight info
| Callsign | NWK361 |
|---|---|
| Flight time | N/A |
| Altitude | 39000 |
| Route | GAFER J64 NONUM |
| Aircraft | A319/M-SDE3FGHIRWY/LB1 |
Departure
| Time | N/A |
|---|---|
| Airport | Alice Springs Airport (YBAS) |
Arrival
| Time | 2026-04-28 05:37 |
|---|---|
| Airport | Cairns International Airport (YBCS) |
| Time | Latitude | Longitude | Altitude | Speed | Heading |
|---|---|---|---|---|---|
| 2026-04-28 05:06 | -18.26754 | 143.34112 | 38983 ft | 508 kts | 57° |
| 2026-04-28 05:07 | -18.24779 | 143.37189 | 38990 ft | 508 kts | 57° |
| 2026-04-28 05:07 | -18.20437 | 143.43934 | 38988 ft | 508 kts | 57° |
| 2026-04-28 05:08 | -18.16482 | 143.50090 | 38988 ft | 508 kts | 57° |
| 2026-04-28 05:08 | -18.12534 | 143.56224 | 38986 ft | 507 kts | 57° |
| 2026-04-28 05:09 | -18.08565 | 143.62362 | 38982 ft | 507 kts | 57° |
| 2026-04-28 05:09 | -18.04606 | 143.68494 | 38984 ft | 506 kts | 57° |
| 2026-04-28 05:10 | -18.00658 | 143.74611 | 38980 ft | 506 kts | 57° |
| 2026-04-28 05:10 | -17.96712 | 143.80725 | 38982 ft | 506 kts | 56° |
| 2026-04-28 05:11 | -17.92754 | 143.86839 | 38523 ft | 509 kts | 56° |
| 2026-04-28 05:11 | -17.90733 | 143.89953 | 37446 ft | 522 kts | 56° |
| 2026-04-28 05:11 | -17.88680 | 143.93122 | 36575 ft | 527 kts | 56° |
| 2026-04-28 05:11 | -17.86614 | 143.96308 | 35831 ft | 529 kts | 56° |
| 2026-04-28 05:12 | -17.84548 | 143.99497 | 35313 ft | 526 kts | 56° |
| 2026-04-28 05:12 | -17.82503 | 144.02655 | 34826 ft | 522 kts | 56° |
| 2026-04-28 05:12 | -17.80469 | 144.05793 | 34261 ft | 520 kts | 56° |
| 2026-04-28 05:12 | -17.78448 | 144.08905 | 33928 ft | 513 kts | 56° |
| 2026-04-28 05:13 | -17.76441 | 144.11991 | 33383 ft | 509 kts | 56° |
| 2026-04-28 05:13 | -17.74480 | 144.15002 | 32867 ft | 506 kts | 56° |
| 2026-04-28 05:13 | -17.72509 | 144.18029 | 32200 ft | 499 kts | 56° |
| 2026-04-28 05:13 | -17.70564 | 144.21017 | 31447 ft | 493 kts | 56° |
| 2026-04-28 05:14 | -17.68657 | 144.23949 | 30960 ft | 480 kts | 56° |
| 2026-04-28 05:14 | -17.66798 | 144.26811 | 30467 ft | 470 kts | 56° |
| 2026-04-28 05:14 | -17.64980 | 144.29612 | 29986 ft | 460 kts | 56° |
| 2026-04-28 05:14 | -17.63197 | 144.32349 | 29488 ft | 449 kts | 55° |
| 2026-04-28 05:15 | -17.61450 | 144.35025 | 29084 ft | 438 kts | 55° |
| 2026-04-28 05:15 | -17.59753 | 144.37625 | 28717 ft | 426 kts | 55° |
| 2026-04-28 05:15 | -17.58099 | 144.40155 | 28348 ft | 415 kts | 55° |
| 2026-04-28 05:15 | -17.56489 | 144.42619 | 27992 ft | 405 kts | 55° |
| 2026-04-28 05:16 | -17.54900 | 144.45056 | 27635 ft | 403 kts | 55° |
| 2026-04-28 05:16 | -17.53328 | 144.47470 | 27281 ft | 400 kts | 55° |
| 2026-04-28 05:16 | -17.51779 | 144.49842 | 26920 ft | 399 kts | 55° |
| 2026-04-28 05:17 | -17.48652 | 144.54623 | 26172 ft | 396 kts | 55° |
| 2026-04-28 05:17 | -17.47099 | 144.56996 | 25791 ft | 394 kts | 55° |
| 2026-04-28 05:17 | -17.45555 | 144.59361 | 25414 ft | 393 kts | 55° |
| 2026-04-28 05:17 | -17.44015 | 144.61716 | 25019 ft | 391 kts | 55° |
| 2026-04-28 05:18 | -17.42478 | 144.64064 | 24620 ft | 390 kts | 55° |
| 2026-04-28 05:18 | -17.40945 | 144.66401 | 24223 ft | 389 kts | 55° |
| 2026-04-28 05:18 | -17.39416 | 144.68734 | 23820 ft | 388 kts | 55° |
| 2026-04-28 05:18 | -17.37893 | 144.71061 | 23380 ft | 387 kts | 56° |
| 2026-04-28 05:19 | -17.36377 | 144.73376 | 22949 ft | 384 kts | 55° |
| 2026-04-28 05:19 | -17.34872 | 144.75669 | 22538 ft | 380 kts | 55° |
| 2026-04-28 05:19 | -17.33380 | 144.77942 | 22138 ft | 377 kts | 55° |
| 2026-04-28 05:19 | -17.31899 | 144.80196 | 21734 ft | 375 kts | 55° |
| 2026-04-28 05:20 | -17.30428 | 144.82436 | 21330 ft | 372 kts | 55° |
| 2026-04-28 05:20 | -17.28964 | 144.84663 | 20929 ft | 370 kts | 55° |
| 2026-04-28 05:20 | -17.27515 | 144.86871 | 20513 ft | 368 kts | 55° |
| 2026-04-28 05:20 | -17.26069 | 144.89076 | 20122 ft | 366 kts | 55° |
| 2026-04-28 05:21 | -17.24635 | 144.91260 | 19723 ft | 364 kts | 55° |
| 2026-04-28 05:21 | -17.23201 | 144.93440 | 19323 ft | 362 kts | 55° |
| 2026-04-28 05:21 | -17.21774 | 144.95607 | 18912 ft | 361 kts | 55° |
| 2026-04-28 05:21 | -17.20350 | 144.97768 | 18505 ft | 360 kts | 55° |
| 2026-04-28 05:22 | -17.18949 | 144.99895 | 18079 ft | 359 kts | 55° |
| 2026-04-28 05:22 | -17.17538 | 145.02041 | 17660 ft | 357 kts | 55° |
| 2026-04-28 05:22 | -17.16137 | 145.04168 | 17261 ft | 354 kts | 55° |
| 2026-04-28 05:22 | -17.14748 | 145.06278 | 16864 ft | 351 kts | 55° |
| 2026-04-28 05:23 | -17.13370 | 145.08372 | 16467 ft | 348 kts | 55° |
| 2026-04-28 05:23 | -17.12001 | 145.10454 | 16077 ft | 346 kts | 55° |
| 2026-04-28 05:23 | -17.10641 | 145.12521 | 15687 ft | 344 kts | 55° |
| 2026-04-28 05:23 | -17.09288 | 145.14569 | 15303 ft | 342 kts | 55° |
| 2026-04-28 05:24 | -17.07937 | 145.16609 | 14912 ft | 340 kts | 54° |
| 2026-04-28 05:24 | -17.06595 | 145.18635 | 14512 ft | 338 kts | 54° |
| 2026-04-28 05:24 | -17.05261 | 145.20652 | 14138 ft | 337 kts | 54° |
| 2026-04-28 05:24 | -17.03932 | 145.22667 | 13742 ft | 336 kts | 54° |
| 2026-04-28 05:25 | -17.02611 | 145.24665 | 13326 ft | 333 kts | 54° |
| 2026-04-28 05:25 | -17.01303 | 145.26646 | 12937 ft | 330 kts | 54° |
| 2026-04-28 05:25 | -17.00445 | 145.27948 | 12676 ft | 328 kts | 54° |
| 2026-04-28 05:25 | -16.99154 | 145.29903 | 12297 ft | 325 kts | 54° |
| 2026-04-28 05:26 | -16.97873 | 145.31839 | 11909 ft | 323 kts | 54° |
| 2026-04-28 05:26 | -16.96601 | 145.33761 | 11523 ft | 320 kts | 55° |
| 2026-04-28 05:26 | -16.95339 | 145.35671 | 11141 ft | 318 kts | 55° |
| 2026-04-28 05:26 | -16.94086 | 145.37566 | 10752 ft | 316 kts | 55° |
| 2026-04-28 05:27 | -16.92842 | 145.39445 | 10372 ft | 313 kts | 55° |
| 2026-04-28 05:27 | -16.91406 | 145.41136 | 9988 ft | 311 kts | 40° |
| 2026-04-28 05:27 | -16.89616 | 145.42349 | 9794 ft | 302 kts | 28° |
| 2026-04-28 05:27 | -16.87784 | 145.43379 | 9469 ft | 298 kts | 29° |
| 2026-04-28 05:28 | -16.85968 | 145.44414 | 9084 ft | 297 kts | 30° |
| 2026-04-28 05:28 | -16.84167 | 145.45444 | 8614 ft | 293 kts | 30° |
| 2026-04-28 05:28 | -16.82391 | 145.46457 | 8161 ft | 287 kts | 31° |
| 2026-04-28 05:28 | -16.80673 | 145.47435 | 7801 ft | 277 kts | 31° |
| 2026-04-28 05:29 | -16.78996 | 145.48388 | 7466 ft | 274 kts | 31° |
| 2026-04-28 05:29 | -16.77342 | 145.49328 | 7125 ft | 274 kts | 31° |
| 2026-04-28 05:29 | -16.75664 | 145.50281 | 6785 ft | 275 kts | 32° |
| 2026-04-28 05:29 | -16.73982 | 145.51236 | 6444 ft | 276 kts | 32° |
| 2026-04-28 05:30 | -16.72298 | 145.52193 | 6089 ft | 276 kts | 32° |
| 2026-04-28 05:30 | -16.70630 | 145.53185 | 5744 ft | 274 kts | 39° |
| 2026-04-28 05:30 | -16.69223 | 145.54488 | 5392 ft | 269 kts | 53° |
| 2026-04-28 05:30 | -16.68044 | 145.55997 | 5060 ft | 268 kts | 55° |
| 2026-04-28 05:31 | -16.66863 | 145.57505 | 5014 ft | 269 kts | 55° |
| 2026-04-28 05:31 | -16.65676 | 145.59011 | 5018 ft | 267 kts | 55° |
| 2026-04-28 05:31 | -16.64575 | 145.60517 | 4703 ft | 260 kts | 66° |
| 2026-04-28 05:31 | -16.64235 | 145.62326 | 4214 ft | 254 kts | 99° |
| 2026-04-28 05:32 | -16.64828 | 145.63990 | 4018 ft | 241 kts | 127° |
| 2026-04-28 05:32 | -16.66067 | 145.65088 | 3878 ft | 231 kts | 153° |
| 2026-04-28 05:32 | -16.67504 | 145.65757 | 3756 ft | 221 kts | 155° |
| 2026-04-28 05:32 | -16.68884 | 145.66368 | 3646 ft | 210 kts | 155° |
| 2026-04-28 05:33 | -16.70195 | 145.66957 | 3536 ft | 200 kts | 155° |
| 2026-04-28 05:33 | -16.71465 | 145.67530 | 3256 ft | 198 kts | 156° |
| 2026-04-28 05:33 | -16.72723 | 145.68098 | 2998 ft | 196 kts | 157° |
| 2026-04-28 05:33 | -16.73968 | 145.68659 | 2759 ft | 194 kts | 156° |
| 2026-04-28 05:34 | -16.75214 | 145.69222 | 2457 ft | 194 kts | 156° |
| 2026-04-28 05:34 | -16.76425 | 145.69768 | 2152 ft | 184 kts | 156° |
| 2026-04-28 05:34 | -16.77556 | 145.70278 | 1885 ft | 170 kts | 155° |
| 2026-04-28 05:34 | -16.78590 | 145.70745 | 1687 ft | 154 kts | 155° |
| 2026-04-28 05:35 | -16.79535 | 145.71171 | 1463 ft | 142 kts | 156° |
| 2026-04-28 05:35 | -16.80426 | 145.71575 | 1272 ft | 136 kts | 157° |
| 2026-04-28 05:35 | -16.81294 | 145.71967 | 1075 ft | 131 kts | 156° |
| 2026-04-28 05:35 | -16.82102 | 145.72336 | 863 ft | 124 kts | 156° |
| 2026-04-28 05:36 | -16.82876 | 145.72701 | 705 ft | 122 kts | 156° |
| 2026-04-28 05:36 | -16.83655 | 145.73036 | 572 ft | 122 kts | 161° |
| 2026-04-28 05:36 | -16.84437 | 145.73370 | 459 ft | 120 kts | 156° |
| 2026-04-28 05:36 | -16.85209 | 145.73732 | 310 ft | 121 kts | 155° |
| 2026-04-28 05:37 | -16.85984 | 145.74085 | 182 ft | 118 kts | 155° |
| 2026-04-28 05:37 | -16.86727 | 145.74421 | 49 ft | 118 kts | 156° |
| 2026-04-28 05:37 | -16.87436 | 145.74747 | 18 ft | 94 kts | 156° |
| 2026-04-28 05:37 | -16.87877 | 145.74942 | 18 ft | 44 kts | 157° |
| 2026-04-28 05:38 | -16.88053 | 145.75021 | 17 ft | 13 kts | 156° |
| 2026-04-28 05:38 | -16.88160 | 145.75069 | 17 ft | 19 kts | 156° |
| 2026-04-28 05:38 | -16.88280 | 145.75124 | 19 ft | 12 kts | 156° |
| 2026-04-28 05:38 | -16.88348 | 145.75164 | 19 ft | 13 kts | 131° |
| 2026-04-28 05:39 | -16.88340 | 145.75264 | 19 ft | 16 kts | 67° |
| 2026-04-28 05:39 | -16.88281 | 145.75311 | 16 ft | 13 kts | 353° |
| 2026-04-28 05:39 | -16.88193 | 145.75272 | 16 ft | 14 kts | 336° |
| 2026-04-28 05:39 | -16.88108 | 145.75234 | 16 ft | 13 kts | 337° |
| 2026-04-28 05:40 | -16.88026 | 145.75199 | 15 ft | 13 kts | 338° |
| 2026-04-28 05:40 | -16.87949 | 145.75165 | 15 ft | 11 kts | 339° |
| 2026-04-28 05:40 | -16.87893 | 145.75200 | 15 ft | 10 kts | 58° |
| 2026-04-28 05:40 | -16.87835 | 145.75212 | 15 ft | 8 kts | 336° |
| 2026-04-28 05:41 | -16.87781 | 145.75188 | 16 ft | 8 kts | 344° |
| 2026-04-28 05:41 | -16.87743 | 145.75217 | 15 ft | 8 kts | 69° |
| 2026-04-28 05:41 | -16.87728 | 145.75255 | 15 ft | 4 kts | 66° |
| 2026-04-28 05:41 | -16.87724 | 145.75264 | 15 ft | 0 kts | 66° |
| 2026-04-28 05:42 | -16.87724 | 145.75265 | 15 ft | 0 kts | 66° |